createdAt,value
2018-09-08T00:01:35.481Z,6.20
2018-09-08T00:04:04.092Z,7.10
2018-09-08T00:06:33.996Z,7.00
2018-09-08T00:09:03.899Z,7.03
2018-09-08T00:11:32.421Z,7.70
2018-09-08T00:14:00.982Z,5.17
2018-09-08T00:16:34.848Z,5.50
2018-09-08T00:19:08.840Z,6.47
2018-09-08T00:21:42.718Z,6.43
2018-09-08T00:24:16.471Z,5.33
2018-09-08T00:26:44.180Z,5.50
2018-09-08T00:29:20.956Z,5.60
2018-09-08T00:31:49.541Z,5.23
2018-09-08T00:34:18.093Z,5.77
2018-09-08T00:36:46.610Z,5.33
2018-09-08T00:39:15.151Z,6.73
2018-09-08T00:41:43.753Z,6.57
2018-09-08T00:44:12.663Z,5.53
2018-09-08T00:46:41.167Z,5.40
2018-09-08T00:49:09.756Z,7.03
2018-09-08T00:51:38.274Z,7.37
2018-09-08T00:54:06.824Z,7.67
2018-09-08T00:56:35.413Z,7.43
2018-09-08T00:59:04.901Z,6.47
2018-09-08T01:01:34.912Z,6.60
2018-09-08T01:04:03.500Z,6.10
2018-09-08T01:06:32.084Z,6.80
2018-09-08T01:09:00.835Z,6.90
2018-09-08T01:11:29.399Z,6.43
2018-09-08T01:13:57.932Z,6.60
2018-09-08T01:16:26.488Z,6.23
2018-09-08T01:18:55.005Z,6.30
2018-09-08T01:21:23.581Z,7.67
2018-09-08T01:23:53.451Z,9.10
2018-09-08T01:26:22.891Z,6.50
2018-09-08T01:28:52.260Z,6.80
2018-09-08T01:31:21.494Z,7.20
2018-09-08T01:33:50.011Z,8.97
2018-09-08T01:36:18.566Z,6.93
2018-09-08T01:38:47.337Z,12.30
2018-09-08T01:41:15.881Z,8.53
2018-09-08T01:43:44.408Z,7.83
2018-09-08T01:46:12.943Z,9.17
2018-09-08T01:48:41.465Z,8.67
2018-09-08T01:51:10.891Z,8.27
2018-09-08T01:53:39.476Z,8.00
2018-09-08T01:56:08.197Z,8.60
2018-09-08T01:58:36.859Z,12.50
2018-09-08T02:01:05.572Z,9.17
2018-09-08T02:03:34.091Z,12.67
2018-09-08T02:06:02.688Z,11.67
2018-09-08T02:08:31.218Z,11.43
2018-09-08T02:10:59.788Z,10.40
2018-09-08T02:13:28.313Z,9.83
2018-09-08T02:15:56.852Z,9.63
2018-09-08T02:18:25.788Z,9.83
2018-09-08T02:20:54.344Z,8.17
2018-09-08T02:23:22.883Z,10.00
2018-09-08T02:25:51.767Z,7.67
2018-09-08T02:28:20.298Z,9.63
2018-09-08T02:30:48.810Z,10.03
2018-09-08T02:33:17.348Z,8.57
2018-09-08T02:35:45.876Z,8.50
2018-09-08T02:38:14.395Z,8.03
2018-09-08T02:40:42.949Z,9.53
2018-09-08T02:43:11.450Z,8.40
2018-09-08T02:45:40.001Z,9.77
2018-09-08T02:48:08.522Z,10.03
2018-09-08T02:50:38.170Z,8.60
2018-09-08T02:53:06.717Z,9.00
2018-09-08T02:55:34.619Z,10.67
2018-09-08T02:58:02.059Z,9.60
2018-09-08T03:00:29.972Z,9.53
2018-09-08T03:02:57.396Z,10.73
2018-09-08T03:05:24.853Z,11.03
2018-09-08T03:07:52.357Z,9.20
2018-09-08T03:10:20.509Z,12.20
2018-09-08T03:12:47.914Z,12.77
2018-09-08T03:15:15.313Z,10.67
2018-09-08T03:17:42.732Z,14.13
2018-09-08T03:20:10.110Z,11.73
2018-09-08T03:22:37.536Z,12.00
2018-09-08T03:25:04.911Z,12.27
2018-09-08T03:27:32.288Z,11.13
2018-09-08T03:29:59.706Z,15.07
2018-09-08T03:32:27.123Z,11.80
2018-09-08T03:34:54.512Z,15.23
2018-09-08T03:37:21.915Z,13.03
2018-09-08T03:39:49.293Z,10.43
2018-09-08T03:42:16.695Z,11.40
2018-09-08T03:44:44.076Z,11.60
2018-09-08T03:47:11.853Z,13.77
2018-09-08T03:49:39.240Z,9.23
2018-09-08T03:52:06.623Z,9.47
2018-09-08T03:54:34.018Z,10.40
2018-09-08T03:57:01.433Z,12.47
2018-09-08T03:59:28.808Z,8.77
2018-09-08T04:01:56.213Z,9.90
2018-09-08T04:04:24.766Z,11.67
2018-09-08T04:06:53.307Z,10.07
2018-09-08T04:09:21.819Z,14.33
2018-09-08T04:11:50.435Z,8.20
2018-09-08T04:14:18.995Z,8.50
2018-09-08T04:16:47.595Z,7.73
2018-09-08T04:19:16.099Z,8.20
2018-09-08T04:21:44.628Z,7.80
2018-09-08T04:24:13.132Z,7.30
2018-09-08T04:26:41.671Z,8.90
2018-09-08T04:29:10.218Z,8.83
2018-09-08T04:31:38.754Z,10.63
2018-09-08T04:34:07.303Z,10.57
2018-09-08T04:36:35.812Z,8.90
2018-09-08T04:39:06.496Z,10.23
2018-09-08T04:41:35.051Z,14.37
2018-09-08T04:44:03.631Z,13.20
2018-09-08T04:46:32.920Z,15.07
2018-09-08T04:49:01.597Z,14.03
2018-09-08T04:51:30.110Z,13.40
2018-09-08T04:53:58.666Z,11.43
2018-09-08T04:56:27.196Z,11.83
2018-09-08T04:58:55.744Z,10.73
2018-09-08T05:01:25.506Z,14.80
2018-09-08T05:03:54.091Z,10.90
2018-09-08T05:06:22.649Z,14.30
2018-09-08T05:08:51.212Z,13.37
2018-09-08T05:11:19.759Z,14.87
2018-09-08T05:13:48.299Z,14.77
2018-09-08T05:16:16.926Z,13.80
2018-09-08T05:18:45.472Z,12.63
2018-09-08T05:21:13.997Z,12.77
2018-09-08T05:23:42.564Z,11.20
2018-09-08T05:26:11.087Z,13.10
2018-09-08T05:28:39.759Z,10.50
2018-09-08T05:31:08.215Z,12.37
2018-09-08T05:33:36.732Z,12.07
2018-09-08T05:36:05.648Z,10.37
2018-09-08T05:38:34.211Z,10.00
2018-09-08T05:41:02.746Z,10.03
2018-09-08T05:43:31.302Z,11.27
2018-09-08T05:45:59.882Z,12.47
2018-09-08T05:48:28.433Z,11.70
2018-09-08T05:50:56.969Z,9.13
2018-09-08T05:53:25.531Z,10.17
2018-09-08T05:55:54.053Z,11.70
2018-09-08T05:58:22.646Z,9.73
2018-09-08T06:00:51.146Z,9.27
2018-09-08T06:03:19.720Z,8.00
2018-09-08T06:05:48.280Z,9.03
2018-09-08T06:08:16.836Z,8.63
2018-09-08T06:10:45.437Z,8.33
2018-09-08T06:13:13.991Z,9.23
2018-09-08T06:15:42.532Z,8.60
2018-09-08T06:18:11.695Z,9.53
2018-09-08T06:20:40.242Z,9.90
2018-09-08T06:23:08.792Z,10.43
2018-09-08T06:25:37.344Z,11.63
2018-09-08T06:28:06.062Z,10.80
2018-09-08T06:30:34.585Z,8.50
2018-09-08T06:33:03.133Z,9.40
2018-09-08T06:35:31.673Z,9.60
2018-09-08T06:38:00.219Z,8.77
2018-09-08T06:40:28.785Z,8.97
2018-09-08T06:42:57.313Z,8.40
2018-09-08T06:45:25.857Z,8.83
2018-09-08T06:47:54.377Z,9.23
2018-09-08T06:50:22.936Z,7.17
2018-09-08T06:52:51.464Z,8.00
2018-09-08T06:55:20.021Z,7.73
2018-09-08T06:57:48.590Z,6.93
2018-09-08T07:00:17.113Z,8.93
2018-09-08T07:02:45.704Z,7.13
2018-09-08T07:05:14.375Z,6.50
2018-09-08T07:07:42.895Z,6.07
2018-09-08T07:10:11.436Z,6.00
2018-09-08T07:12:39.944Z,5.10
2018-09-08T07:15:08.590Z,7.17
2018-09-08T07:17:37.102Z,6.77
2018-09-08T07:20:06.264Z,5.70
2018-09-08T07:22:34.824Z,5.30
2018-09-08T07:25:03.483Z,5.03
2018-09-08T07:27:31.985Z,4.77
2018-09-08T07:30:00.551Z,4.90
2018-09-08T07:32:29.265Z,5.17
2018-09-08T07:34:57.817Z,4.87
2018-09-08T07:37:26.340Z,3.90
2018-09-08T07:39:55.079Z,3.77
2018-09-08T07:42:23.597Z,4.27
2018-09-08T07:44:52.287Z,4.30
2018-09-08T07:47:20.885Z,4.10
2018-09-08T07:49:49.515Z,6.07
2018-09-08T07:52:18.207Z,3.23
2018-09-08T07:54:47.612Z,4.17
2018-09-08T07:57:16.140Z,3.37
2018-09-08T07:59:44.746Z,4.57
2018-09-08T08:02:13.343Z,3.87
2018-09-08T08:04:41.895Z,3.27
2018-09-08T08:07:13.507Z,4.80
2018-09-08T08:09:42.863Z,2.70
2018-09-08T08:12:11.529Z,3.20
2018-09-08T08:14:40.445Z,5.07
2018-09-08T08:17:10.563Z,4.40
2018-09-08T08:19:39.104Z,3.63
2018-09-08T08:22:07.658Z,4.60
2018-09-08T08:24:36.467Z,2.83
2018-09-08T08:27:05.004Z,3.43
2018-09-08T08:29:33.556Z,3.63
2018-09-08T08:32:02.097Z,3.63
2018-09-08T08:34:30.770Z,2.40
2018-09-08T08:36:59.303Z,2.53
2018-09-08T08:39:27.809Z,1.93
2018-09-08T08:41:56.366Z,1.93
2018-09-08T08:44:24.897Z,2.47
2018-09-08T08:46:53.446Z,3.07
2018-09-08T08:49:21.966Z,2.17
2018-09-08T08:52:01.765Z,1.63
2018-09-08T08:54:35.708Z,2.50
2018-09-08T08:57:04.263Z,2.33
2018-09-08T08:59:32.823Z,2.10
2018-09-08T09:02:01.584Z,2.60
2018-09-08T09:04:30.103Z,1.90
2018-09-08T09:06:59.049Z,3.60
2018-09-08T09:09:27.560Z,2.73
2018-09-08T09:11:56.326Z,3.60
2018-09-08T09:14:24.807Z,2.30
2018-09-08T09:16:53.360Z,1.80
2018-09-08T09:19:36.549Z,1.60
2018-09-08T09:22:17.853Z,1.83
2018-09-08T09:24:52.446Z,2.30
2018-09-08T09:27:21.202Z,1.60
2018-09-08T09:29:50.272Z,3.57
2018-09-08T09:32:18.964Z,2.23
2018-09-08T09:34:47.487Z,2.97
2018-09-08T09:37:16.095Z,2.37
2018-09-08T09:39:45.460Z,2.03
2018-09-08T09:42:14.488Z,3.03
2018-09-08T09:44:43.039Z,2.00
2018-09-08T09:47:11.654Z,3.77
2018-09-08T09:49:40.173Z,1.87
2018-09-08T09:52:08.746Z,2.33
2018-09-08T09:54:37.309Z,2.70
2018-09-08T09:57:05.948Z,2.90
2018-09-08T09:59:34.549Z,3.00
2018-09-08T10:03:12.286Z,1.70
2018-09-08T10:05:40.813Z,2.03
2018-09-08T10:08:09.379Z,2.27
2018-09-08T10:10:37.904Z,2.67
2018-09-08T10:13:06.776Z,1.80
2018-09-08T10:15:35.296Z,3.30
2018-09-08T10:18:03.894Z,3.53
2018-09-08T10:20:32.417Z,2.70
2018-09-08T10:23:01.027Z,2.77
2018-09-08T10:25:29.517Z,2.80
2018-09-08T10:28:05.107Z,2.97
2018-09-08T10:30:33.675Z,1.50
2018-09-08T10:33:02.213Z,2.60
2018-09-08T10:35:30.821Z,1.50
2018-09-08T10:37:59.431Z,2.13
2018-09-08T10:40:28.054Z,2.53
2018-09-08T10:42:56.531Z,1.83
2018-09-08T10:45:25.223Z,2.63
2018-09-08T10:47:53.895Z,1.87
2018-09-08T10:50:22.551Z,2.10
2018-09-08T10:52:51.177Z,2.53
2018-09-08T10:55:19.702Z,9.63
2018-09-08T10:57:48.253Z,1.40
2018-09-08T11:00:17.011Z,2.97
2018-09-08T11:02:45.947Z,2.00
2018-09-08T11:05:14.248Z,3.42
2018-09-08T11:07:42.814Z,1.80
2018-09-08T11:10:11.446Z,2.73
2018-09-08T11:12:39.984Z,1.77
2018-09-08T11:15:09.716Z,1.32
2018-09-08T11:17:38.265Z,1.98
2018-09-08T11:20:07.522Z,9.78
2018-09-08T11:22:36.060Z,3.52
2018-09-08T11:25:04.741Z,4.37
2018-09-08T11:27:33.369Z,1.92
2018-09-08T11:30:01.947Z,1.80
2018-09-08T11:32:30.515Z,2.75
2018-09-08T11:34:59.073Z,2.22
2018-09-08T11:37:27.617Z,1.47
2018-09-08T11:39:56.376Z,2.17
2018-09-08T11:42:24.862Z,1.60
2018-09-08T11:44:53.415Z,2.52
2018-09-08T11:47:22.380Z,2.35
2018-09-08T11:49:51.060Z,1.95
2018-09-08T11:52:19.738Z,2.22
2018-09-08T11:54:48.304Z,3.10
2018-09-08T11:57:16.848Z,1.50
2018-09-08T11:59:45.417Z,1.47
2018-09-08T12:02:14.064Z,1.60
2018-09-08T12:04:42.625Z,1.65
2018-09-08T12:07:11.181Z,1.62
2018-09-08T12:09:39.732Z,2.17
2018-09-08T12:12:08.253Z,2.35
2018-09-08T12:14:36.777Z,1.85
2018-09-08T12:17:05.298Z,1.55
2018-09-08T12:19:33.914Z,1.65
2018-09-08T12:22:02.452Z,1.50
2018-09-08T12:24:31.043Z,1.82
2018-09-08T12:26:59.572Z,3.80
2018-09-08T12:29:28.137Z,2.58
2018-09-08T12:31:56.709Z,1.40
2018-09-08T12:34:25.330Z,1.60
2018-09-08T12:36:53.894Z,1.77
2018-09-08T12:39:22.411Z,2.00
2018-09-08T12:41:50.971Z,2.50
2018-09-08T12:44:19.588Z,1.35
2018-09-08T12:46:48.115Z,2.75
2018-09-08T12:49:16.705Z,1.60
2018-09-08T12:51:45.232Z,1.70
2018-09-08T12:54:13.797Z,3.30
2018-09-08T12:56:42.347Z,1.52
2018-09-08T12:59:10.913Z,3.22
2018-09-08T13:01:39.439Z,1.50
2018-09-08T13:04:08.171Z,2.62
2018-09-08T13:06:36.700Z,2.80
2018-09-08T13:09:06.275Z,2.08
2018-09-08T13:11:34.859Z,1.60
2018-09-08T13:14:03.432Z,1.60
2018-09-08T13:16:31.969Z,2.00
2018-09-08T13:19:00.465Z,1.82
2018-09-08T13:21:28.994Z,2.30
2018-09-08T13:23:57.547Z,1.62
2018-09-08T13:26:26.065Z,2.00
2018-09-08T13:28:54.602Z,1.70
2018-09-08T13:31:23.129Z,2.00
2018-09-08T13:33:51.701Z,1.55
2018-09-08T13:36:20.252Z,1.67
2018-09-08T13:38:48.864Z,1.50
2018-09-08T13:41:17.453Z,1.75
2018-09-08T13:43:45.955Z,4.90
2018-09-08T13:46:14.491Z,3.50
2018-09-08T13:48:43.001Z,1.37
2018-09-08T13:51:11.575Z,1.40
2018-09-08T13:53:40.315Z,1.92
2018-09-08T13:56:08.843Z,1.27
2018-09-08T13:58:37.393Z,1.50
2018-09-08T14:01:06.066Z,1.32
2018-09-08T14:03:34.624Z,1.60
2018-09-08T14:06:03.175Z,3.17
2018-09-08T14:08:31.675Z,1.67
2018-09-08T14:11:00.219Z,1.70
2018-09-08T14:13:28.770Z,1.60
2018-09-08T14:15:57.333Z,1.98
2018-09-08T14:18:25.877Z,2.25
2018-09-08T14:20:54.447Z,2.10
2018-09-08T14:23:22.970Z,4.03
2018-09-08T14:25:51.492Z,1.80
2018-09-08T14:28:20.024Z,1.82
2018-09-08T14:30:48.573Z,1.80
2018-09-08T14:33:17.123Z,1.75
2018-09-08T14:35:45.677Z,1.90
2018-09-08T14:38:14.213Z,2.17
2018-09-08T14:40:42.856Z,2.05
2018-09-08T14:43:11.413Z,2.02
2018-09-08T14:45:39.978Z,1.85
2018-09-08T14:48:08.548Z,2.70
2018-09-08T14:50:37.099Z,2.25
2018-09-08T14:53:05.992Z,1.95
2018-09-08T14:55:34.523Z,1.95
2018-09-08T14:58:03.040Z,1.70
2018-09-08T15:00:31.603Z,1.82
2018-09-08T15:03:00.127Z,3.83
2018-09-08T15:05:28.670Z,1.90
2018-09-08T15:07:57.183Z,2.80
2018-09-08T15:10:25.712Z,2.33
2018-09-08T15:12:54.238Z,2.05
2018-09-08T15:15:22.780Z,2.60
2018-09-08T15:17:51.327Z,2.02
2018-09-08T15:20:20.555Z,1.72
2018-09-08T15:22:49.084Z,3.05
2018-09-08T15:25:17.647Z,1.82
2018-09-08T15:27:46.165Z,1.60
2018-09-08T15:30:14.715Z,1.90
2018-09-08T15:32:43.339Z,2.58
2018-09-08T15:35:11.839Z,1.60
2018-09-08T15:37:40.378Z,3.90
2018-09-08T15:40:08.945Z,2.33
2018-09-08T15:42:37.484Z,3.20
2018-09-08T15:45:06.027Z,3.72
2018-09-08T15:47:34.552Z,1.80
2018-09-08T15:50:03.140Z,3.85
2018-09-08T15:52:31.672Z,2.05
2018-09-08T15:55:00.196Z,4.08
2018-09-08T15:57:28.791Z,2.90
2018-09-08T15:59:57.332Z,1.60
2018-09-08T16:02:26.728Z,3.37
2018-09-08T16:04:55.249Z,3.08
2018-09-08T16:07:23.791Z,2.10
2018-09-08T16:09:52.311Z,1.98
2018-09-08T16:12:20.864Z,2.58
2018-09-08T16:14:49.401Z,4.22
2018-09-08T16:17:17.961Z,1.82
2018-09-08T16:19:46.480Z,1.87
2018-09-08T16:22:15.135Z,2.12
2018-09-08T16:24:43.659Z,2.52
2018-09-08T16:27:12.218Z,2.17
2018-09-08T16:29:40.822Z,2.75
2018-09-08T16:32:09.560Z,2.27
2018-09-08T16:34:38.093Z,4.37
2018-09-08T16:37:06.655Z,4.22
2018-09-08T16:39:35.213Z,2.37
2018-09-08T16:42:03.746Z,3.05
2018-09-08T16:44:32.283Z,2.12
2018-09-08T16:47:00.850Z,4.12
2018-09-08T16:49:29.420Z,3.80
2018-09-08T16:51:58.018Z,2.10
2018-09-08T16:54:26.503Z,2.40
2018-09-08T16:56:55.165Z,2.17
2018-09-08T16:59:23.696Z,1.97
2018-09-08T17:01:52.252Z,1.67
2018-09-08T17:04:20.782Z,2.53
2018-09-08T17:06:49.690Z,2.97
2018-09-08T17:09:18.204Z,2.53
2018-09-08T17:11:46.746Z,3.67
2018-09-08T17:14:15.289Z,2.33
2018-09-08T17:16:43.840Z,1.70
2018-09-08T17:19:12.390Z,1.90
2018-09-08T17:21:40.892Z,2.60
2018-09-08T17:24:09.452Z,4.33
2018-09-08T17:26:37.995Z,2.30
2018-09-08T17:29:06.552Z,2.10
2018-09-08T17:31:35.090Z,2.17
2018-09-08T17:34:03.688Z,3.73
2018-09-08T17:36:32.192Z,2.70
2018-09-08T17:39:01.032Z,4.43
2018-09-08T17:41:29.501Z,4.40
2018-09-08T17:43:58.031Z,2.33
2018-09-08T17:46:26.590Z,4.57
2018-09-08T17:48:55.130Z,5.60
2018-09-08T17:51:23.664Z,5.03
2018-09-08T17:53:52.203Z,5.23
2018-09-08T17:56:20.711Z,7.00
2018-09-08T17:58:49.615Z,6.13
2018-09-08T18:01:19.585Z,7.27
2018-09-08T18:03:49.800Z,7.23
2018-09-08T18:06:18.468Z,8.17
2018-09-08T18:08:47.010Z,4.50
2018-09-08T18:11:15.536Z,5.37
2018-09-08T18:13:44.046Z,4.47
2018-09-08T18:16:12.619Z,4.27
2018-09-08T18:18:41.139Z,4.60
2018-09-08T18:21:09.682Z,3.23
2018-09-08T18:23:38.553Z,4.17
2018-09-08T18:26:07.140Z,4.77
2018-09-08T18:28:35.743Z,3.87
2018-09-08T18:31:04.296Z,3.40
2018-09-08T18:33:32.817Z,5.30
2018-09-08T18:36:02.033Z,6.83
2018-09-08T18:38:30.706Z,5.33
2018-09-08T18:40:59.258Z,3.10
2018-09-08T18:43:28.542Z,3.90
2018-09-08T18:45:57.054Z,2.80
2018-09-08T18:48:25.611Z,2.60
2018-09-08T18:50:54.144Z,3.47
2018-09-08T18:53:22.700Z,5.00
2018-09-08T18:55:51.266Z,3.53
2018-09-08T18:58:19.866Z,3.33
2018-09-08T19:00:48.387Z,7.47
2018-09-08T19:03:16.950Z,7.40
2018-09-08T19:05:45.461Z,4.83
2018-09-08T19:08:14.096Z,4.53
2018-09-08T19:10:42.613Z,6.90
2018-09-08T19:13:11.187Z,8.27
2018-09-08T19:15:39.726Z,8.03
2018-09-08T19:18:08.951Z,5.70
2018-09-08T19:20:38.956Z,4.40
2018-09-08T19:23:07.757Z,4.37
2018-09-08T19:25:36.691Z,6.30
2018-09-08T19:28:05.459Z,6.10
2018-09-08T19:30:34.299Z,5.80
2018-09-08T19:33:03.866Z,4.87
2018-09-08T19:35:36.542Z,4.07
2018-09-08T19:38:05.281Z,3.63
2018-09-08T19:40:39.498Z,3.47
2018-09-08T19:43:08.353Z,2.67
2018-09-08T19:45:37.164Z,3.13
2018-09-08T19:48:08.412Z,3.90
2018-09-08T19:50:37.002Z,3.17
2018-09-08T19:53:10.742Z,4.73
2018-09-08T19:55:39.259Z,4.57
2018-09-08T19:58:13.289Z,3.57
2018-09-08T20:00:42.180Z,4.77
2018-09-08T20:03:10.700Z,3.00
2018-09-08T20:05:39.247Z,6.17
2018-09-08T20:08:08.144Z,3.17
2018-09-08T20:10:36.678Z,3.53
2018-09-08T20:13:05.267Z,4.70
2018-09-08T20:15:33.868Z,4.22
2018-09-08T20:18:03.286Z,3.83
2018-09-08T20:20:31.907Z,4.03
2018-09-08T20:23:00.429Z,3.40
2018-09-08T20:25:28.974Z,4.50
2018-09-08T20:27:57.491Z,3.90
2018-09-08T20:30:26.052Z,3.47
2018-09-08T20:32:54.585Z,3.57
2018-09-08T20:35:23.944Z,5.13
2018-09-08T20:37:52.460Z,4.53
2018-09-08T20:40:20.995Z,3.60
2018-09-08T20:42:49.527Z,4.30
2018-09-08T20:45:18.068Z,3.83
2018-09-08T20:47:46.648Z,5.50
2018-09-08T20:50:15.207Z,3.47
2018-09-08T20:52:43.769Z,4.63
2018-09-08T20:55:12.321Z,3.60
2018-09-08T20:57:40.857Z,5.07
2018-09-08T21:00:09.473Z,4.03
2018-09-08T21:02:37.981Z,4.17
2018-09-08T21:05:06.794Z,3.90
2018-09-08T21:07:35.347Z,3.63
2018-09-08T21:10:03.928Z,4.10
2018-09-08T21:12:32.459Z,5.33
2018-09-08T21:15:01.003Z,4.57
2018-09-08T21:17:29.567Z,6.03
2018-09-08T21:19:58.085Z,4.93
2018-09-08T21:22:26.638Z,3.70
2018-09-08T21:24:55.244Z,4.13
2018-09-08T21:27:23.756Z,3.80
2018-09-08T21:29:52.449Z,4.60
2018-09-08T21:32:21.106Z,6.27
2018-09-08T21:34:49.904Z,5.17
2018-09-08T21:37:18.624Z,6.60
2018-09-08T21:39:47.161Z,4.70
2018-09-08T21:42:15.721Z,5.57
2018-09-08T21:44:44.253Z,4.73
2018-09-08T21:47:12.811Z,4.23
2018-09-08T21:49:41.357Z,4.87
2018-09-08T21:52:09.915Z,4.60
2018-09-08T21:54:38.450Z,7.07
2018-09-08T21:57:07.020Z,5.73
2018-09-08T21:59:35.546Z,5.73
2018-09-08T22:02:04.104Z,6.73
2018-09-08T22:04:32.644Z,5.93
2018-09-08T22:07:01.220Z,5.17
2018-09-08T22:09:29.743Z,7.70
2018-09-08T22:11:58.290Z,6.20
2018-09-08T22:14:26.817Z,6.47
2018-09-08T22:16:55.330Z,5.33
2018-09-08T22:19:23.885Z,5.73
2018-09-08T22:21:52.441Z,5.33
2018-09-08T22:24:20.980Z,6.23
2018-09-08T22:26:49.559Z,4.80
2018-09-08T22:29:18.682Z,7.70
2018-09-08T22:31:47.246Z,6.40
2018-09-08T22:34:15.997Z,6.40
2018-09-08T22:36:44.590Z,5.80
2018-09-08T22:39:13.107Z,5.43
2018-09-08T22:41:41.643Z,6.80
2018-09-08T22:44:10.165Z,8.23
2018-09-08T22:46:39.358Z,6.40
2018-09-08T22:49:07.888Z,6.90
2018-09-08T22:51:36.470Z,5.90
2018-09-08T22:54:04.989Z,6.63
2018-09-08T22:56:33.506Z,7.50
2018-09-08T22:59:02.074Z,5.60
2018-09-08T23:01:30.639Z,5.30
2018-09-08T23:03:59.176Z,7.40
2018-09-08T23:06:27.929Z,5.40
2018-09-08T23:08:56.446Z,5.67
2018-09-08T23:11:25.599Z,4.90
2018-09-08T23:13:54.153Z,5.87
2018-09-08T23:16:22.675Z,4.87
2018-09-08T23:18:51.228Z,4.97
2018-09-08T23:21:19.737Z,6.00
2018-09-08T23:23:48.301Z,6.73
2018-09-08T23:26:16.827Z,4.53
2018-09-08T23:28:45.489Z,7.83
2018-09-08T23:31:14.039Z,5.50
2018-09-08T23:33:42.579Z,4.97
2018-09-08T23:36:11.101Z,4.80
2018-09-08T23:38:39.651Z,6.67
2018-09-08T23:41:08.612Z,5.60
2018-09-08T23:43:37.152Z,6.90
2018-09-08T23:46:05.668Z,4.90
2018-09-08T23:48:34.221Z,4.90
2018-09-08T23:51:02.772Z,5.10
2018-09-08T23:53:31.311Z,5.67
2018-09-08T23:55:59.828Z,5.30
2018-09-08T23:58:28.392Z,5.50
